This is the latest recevied weather packets stored in our database for station/object K1AWR. If no packets are shown the sender has not sent any weather packets the latest 10 day(s).
| Time | Temp. | Humidity | Pressure | Rain* | Wind** | Luminosity | Snow |
|---|---|---|---|---|---|---|---|
| 1777757453 | 13.33° C | 69% | 1010.3 hPa | 0 mm | - | 78 W/m² | - |
| 1777757152 | 13.33° C | 71% | 1010.2 hPa | 0 mm | - | 79 W/m² | - |
| 1777756849 | 13.33° C | 68% | 1010.3 hPa | 0 mm | - | 142 W/m² | - |
| 1777756544 | 13.33° C | 72% | 1010.4 hPa | 0 mm | - | 230 W/m² | - |
| 1777756242 | 13.89° C | 71% | 1010.2 hPa | 0 mm | - | 281 W/m² | - |
| 1777755939 | 13.33° C | 74% | 1010.5 hPa | 0 mm | - | 97 W/m² | - |
| 1777755636 | 12.22° C | 72% | 1010.3 hPa | 0 mm | - | 92 W/m² | - |
| 1777755332 | 12.78° C | 75% | 1010.2 hPa | 0 mm | - | 177 W/m² | - |
| 1777755030 | 12.78° C | 75% | 1010.4 hPa | 0 mm | - | 211 W/m² | - |
| 1777754726 | 12.22° C | 79% | 1010.4 hPa | 0 mm | - | 350 W/m² | - |
| 1777754424 | 12.22° C | 77% | 1010.6 hPa | 0 mm | - | 106 W/m² | - |
| 1777754121 | 12.22° C | 77% | 1010.6 hPa | 0 mm | - | 323 W/m² | - |
| 1777753818 | 12.22° C | 78% | 1010.4 hPa | 0 mm | - | 133 W/m² | - |
| 1777753514 | 13.33° C | 75% | 1010.6 hPa | 0 mm | - | 165 W/m² | - |
| 1777753213 | 14.44° C | 71% | 1010.7 hPa | 0 mm | - | 155 W/m² | - |
| 1777752908 | 13.89° C | 73% | 1010.7 hPa | 0 mm | - | 433 W/m² | - |
| 1777752604 | 14.44° C | 72% | 1010.7 hPa | 0 mm | - | 481 W/m² | - |
| 1777752301 | 13.33° C | 78% | 1010.8 hPa | 0 mm | - | 342 W/m² | - |
| 1777751999 | 12.22° C | 82% | 1010.8 hPa | 0 mm | - | 262 W/m² | - |
| 1777751696 | 12.22° C | 80% | 1011 hPa | 0 mm | - | 220 W/m² | - |
| 1777751392 | 11.67° C | 83% | 1011.1 hPa | 0 mm | - | 324 W/m² | - |
| 1777751089 | 12.22° C | 84% | 1011.2 hPa | 0 mm | - | 291 W/m² | - |
| 1777750784 | 11.67° C | 87% | 1011.3 hPa | 0 mm | - | 303 W/m² | - |
| 1777750482 | 11.67° C | 85% | 1011.5 hPa | 0 mm | - | 264 W/m² | - |
| 1777750178 | 11.11° C | 87% | 1011.5 hPa | 0 mm | - | 311 W/m² | - |
* Rain latest hour (hover to see other rain measurements)
** Current wind speed in m/s (hover to see current wind gust speed)